Time;durP1;ratioP1;P1;durP2;ratioP2;P2;SDS_P1;SDS_P2;PMS_P1;PMS_P2;Temp;Humidity;BMP_temperature;BMP_pressure;BME280_temperature;BME280_humidity;BME280_pressure;Samples;Min_cycle;Max_cycle;Signal;HPM_P1;HPM_P2
2022/09/06 00:00:40;;;;;;;;;;;;;;;20.54;60.03;99885.38;1087060;54;19958;-79
2022/09/06 00:01:44;;;;;;;;;;;;;;;20.49;60.29;99898.78;1087143;54;19951;-80
2022/09/06 00:02:46;;;;;;;;;;;;;;;20.52;59.94;99888.31;1087197;54;20021;-80
2022/09/06 00:03:49;;;;;;;;;;;;;;;20.49;60.69;99886.03;1087131;54;19943;-79
2022/09/06 00:04:50;;;;;;;;;;;;;;;20.49;60.82;99885.22;1086974;54;19943;-81
2022/09/06 00:05:54;;;;;;;;;;;;;;;20.48;60.62;99886.25;1087144;54;20188;-81
2022/09/06 00:06:55;;;;;;;;;;;;;;;20.48;60.40;99891.69;1087015;54;19954;-81
2022/09/06 00:08:00;;;;;;;;;;;;;;;20.40;61.14;99890.84;1087404;54;19953;-80
2022/09/06 00:09:01;;;;;;;;;;;;;;;20.33;61.44;99895.47;1087021;54;19942;-80
2022/09/06 00:10:05;;;;;;;;;;;;;;;20.23;62.04;99890.50;1087215;54;19974;-78
2022/09/06 00:11:07;;;;;;;;;;;;;;;20.26;61.76;99891.94;1088054;39;20490;-80
2022/09/06 00:12:10;;;;;;;;;;;;;;;20.34;60.81;99890.91;1087156;54;19998;-80
2022/09/06 00:13:12;;;;;;;;;;;;;;;20.35;61.01;99882.53;1087239;54;19950;-80
2022/09/06 00:14:15;;;;;;;;;;;;;;;20.41;60.83;99894.41;1087123;54;20445;-81
2022/09/06 00:15:21;;;;;;;;;;;;;;;20.44;61.09;99890.44;1087258;54;19950;-79
2022/09/06 00:16:25;;;;;;;;;;;;;;;20.48;60.82;99878.13;1087264;54;20006;-79
2022/09/06 00:17:27;;;;;;;;;;;;;;;20.51;60.78;99875.81;1087112;54;19946;-80
2022/09/06 00:18:30;;;;;;;;;;;;;;;20.52;60.67;99882.03;1086891;54;19946;-79
2022/09/06 00:19:31;;;;;;;;;;;;;;;20.50;60.84;99878.75;1086799;54;19949;-80
2022/09/06 00:20:35;;;;;;;;;;;;;;;20.47;61.21;99881.88;1086858;54;19951;-80
2022/09/06 00:21:37;;;;;;;;;;;;;;;20.47;61.26;99876.44;1087214;54;19950;-80
2022/09/06 00:22:40;;;;;;;;;;;;;;;20.42;62.06;99871.66;1087333;54;19990;-81
2022/09/06 00:23:42;;;;;;;;;;;;;;;20.41;61.43;99869.97;1087254;54;19951;-81
2022/09/06 00:24:45;;;;;;;;;;;;;;;20.30;62.95;99876.06;1087253;54;19973;-80
2022/09/06 00:25:47;;;;;;;;;;;;;;;20.30;62.27;99866.06;1087522;54;19947;-81
2022/09/06 00:26:50;;;;;;;;;;;;;;;20.26;62.52;99867.53;1087677;46;19953;-79
2022/09/06 00:27:55;;;;;;;;;;;;;;;20.20;63.17;99868.38;1087339;54;19949;-79
2022/09/06 00:28:58;;;;;;;;;;;;;;;20.20;62.97;99871.91;1087257;54;19950;-81
2022/09/06 00:29:59;;;;;;;;;;;;;;;20.20;62.58;99874.63;1087485;39;20627;-83
2022/09/06 00:31:12;;;;;;;;;;;;;;;20.14;63.31;99874.63;1087196;54;20555;-81
2022/09/06 00:32:13;;;;;;;;;;;;;;;20.09;63.64;99873.41;1087448;54;19943;-82
2022/09/06 00:33:17;;;;;;;;;;;;;;;20.13;62.80;99878.41;1087309;54;19943;-81
2022/09/06 00:34:18;;;;;;;;;;;;;;;20.13;63.07;99872.97;1087452;54;19946;-82
2022/09/06 00:35:23;;;;;;;;;;;;;;;20.09;63.67;99878.00;1087183;54;19950;-80
2022/09/06 00:36:24;;;;;;;;;;;;;;;20.11;63.08;99881.34;1087471;54;19950;-81
2022/09/06 00:37:28;;;;;;;;;;;;;;;20.07;63.15;99872.78;1087242;54;19953;-81
2022/09/06 00:38:29;;;;;;;;;;;;;;;20.08;63.42;99869.03;1087341;54;19950;-78
2022/09/06 00:39:34;;;;;;;;;;;;;;;20.12;62.67;99871.31;1086986;54;20006;-81
2022/09/06 00:40:35;;;;;;;;;;;;;;;20.16;62.54;99862.56;1087865;46;19966;-79
2022/09/06 00:41:38;;;;;;;;;;;;;;;20.18;62.57;99873.19;1087496;54;19942;-78
2022/09/06 00:42:40;;;;;;;;;;;;;;;20.14;62.88;99871.94;1087167;54;19942;-79
2022/09/06 00:43:44;;;;;;;;;;;;;;;20.15;62.68;99865.47;1088124;39;20393;-80
2022/09/06 00:44:45;;;;;;;;;;;;;;;20.12;62.87;99874.03;1087355;46;19966;-81
2022/09/06 00:45:50;;;;;;;;;;;;;;;20.08;62.66;99874.47;1087219;54;20071;-80
2022/09/06 00:46:54;;;;;;;;;;;;;;;20.08;62.22;99873.59;1086778;54;19950;-80
2022/09/06 00:47:59;;;;;;;;;;;;;;;20.09;61.96;99873.41;1087140;54;19991;-79
2022/09/06 00:49:02;;;;;;;;;;;;;;;20.12;61.75;99876.75;1087221;54;19950;-78
2022/09/06 00:50:07;;;;;;;;;;;;;;;20.14;61.80;99869.22;1087140;54;19927;-79
2022/09/06 00:51:09;;;;;;;;;;;;;;;20.12;62.12;99872.16;1087255;54;19946;-80
2022/09/06 00:52:15;;;;;;;;;;;;;;;20.13;61.96;99875.69;1087091;54;19973;-79
2022/09/06 00:53:16;;;;;;;;;;;;;;;20.14;62.03;99870.06;1087048;54;19950;-81
2022/09/06 00:54:20;;;;;;;;;;;;;;;20.13;62.42;99865.69;1087254;54;20122;-79
2022/09/06 00:55:23;;;;;;;;;;;;;;;20.06;62.84;99864.88;1087094;54;20550;-82
2022/09/06 00:56:28;;;;;;;;;;;;;;;20.04;62.64;99865.06;1087105;54;19958;-79
2022/09/06 00:57:30;;;;;;;;;;;;;;;20.05;62.69;99860.47;1087045;54;19946;-80
2022/09/06 00:58:35;;;;;;;;;;;;;;;20.05;62.57;99866.72;1086878;54;19946;-79
2022/09/06 00:59:36;;;;;;;;;;;;;;;20.04;62.64;99867.78;1087452;54;19946;-81
2022/09/06 01:00:40;;;;;;;;;;;;;;;20.02;62.60;99869.88;1087112;54;19935;-79
2022/09/06 01:01:41;;;;;;;;;;;;;;;20.02;62.48;99866.31;1087141;54;19947;-80
2022/09/06 01:02:48;;;;;;;;;;;;;;;20.01;62.61;99860.06;1087321;54;19954;-81
2022/09/06 01:03:49;;;;;;;;;;;;;;;19.99;62.79;99861.31;1087089;54;19946;-80
2022/09/06 01:04:53;;;;;;;;;;;;;;;20.01;62.52;99859.22;1086958;54;19945;-80
2022/09/06 01:05:59;;;;;;;;;;;;;;;20.00;63.07;99855.69;1087181;54;19943;-81
2022/09/06 01:07:07;;;;;;;;;;;;;;;20.02;62.64;99860.91;1087104;54;19951;-80
2022/09/06 01:08:13;;;;;;;;;;;;;;;20.03;62.57;99862.56;1087168;54;20003;-81
2022/09/06 01:09:23;;;;;;;;;;;;;;;20.03;62.83;99862.56;1087093;46;19966;-79
2022/09/06 01:10:31;;;;;;;;;;;;;;;20.02;62.85;99867.16;1087139;54;19947;-78
2022/09/06 01:11:42;;;;;;;;;;;;;;;20.01;62.93;99873.63;1087199;54;19954;-79
2022/09/06 01:12:47;;;;;;;;;;;;;;;20.01;63.03;99873.63;1089035;39;20522;-79
2022/09/06 01:13:56;;;;;;;;;;;;;;;19.99;63.12;99873.00;1087157;54;19935;-80
2022/09/06 01:15:08;;;;;;;;;;;;;;;19.99;63.10;99872.16;1087128;54;19943;-80
2022/09/06 01:16:14;;;;;;;;;;;;;;;19.92;64.19;99872.19;1087028;54;20023;-80
2022/09/06 01:17:19;;;;;;;;;;;;;;;19.90;63.95;99875.09;1087130;54;19942;-80
2022/09/06 01:18:40;;;;;;;;;;;;;;;19.89;63.47;99870.72;1088055;39;20341;-79
2022/09/06 01:19:56;;;;;;;;;;;;;;;19.90;63.31;99879.69;1087067;54;19943;-79
2022/09/06 01:21:07;;;;;;;;;;;;;;;19.88;63.42;99871.78;1086600;54;19963;-80
2022/09/06 01:22:14;;;;;;;;;;;;;;;19.85;63.63;99871.31;1088168;39;20427;-80
2022/09/06 01:23:33;;;;;;;;;;;;;;;19.83;63.50;99874.25;1086961;54;20068;-79
2022/09/06 01:24:42;;;;;;;;;;;;;;;19.82;63.60;99877.19;1087149;54;19950;-80
2022/09/06 01:25:52;;;;;;;;;;;;;;;19.78;63.53;99877.59;1087097;54;19942;-78
2022/09/06 01:27:20;;;;;;;;;;;;;;;19.78;63.78;99868.63;1087417;47;19962;-79
2022/09/06 01:28:31;;;;;;;;;;;;;;;19.71;64.17;99874.06;1087096;54;20030;-79
2022/09/06 01:29:34;;;;;;;;;;;;;;;19.70;63.82;99875.09;1087116;54;20631;-80
2022/09/06 01:30:42;;;;;;;;;;;;;;;19.72;64.00;99881.16;1087006;54;19957;-80
2022/09/06 01:31:47;;;;;;;;;;;;;;;19.70;64.16;99885.94;1087118;54;19950;-79
2022/09/06 01:32:56;;;;;;;;;;;;;;;19.66;64.33;99881.13;1087276;54;20007;-83
2022/09/06 01:34:10;;;;;;;;;;;;;;;19.65;64.20;99888.41;1087411;39;20329;-81
2022/09/06 01:35:19;;;;;;;;;;;;;;;19.67;64.04;99890.94;1087040;54;19943;-79
2022/09/06 01:36:23;;;;;;;;;;;;;;;19.66;64.21;99897.41;1087061;54;20512;-79
2022/09/06 01:37:28;;;;;;;;;;;;;;;19.66;64.20;99890.09;1087476;54;19942;-80
2022/09/06 01:38:29;;;;;;;;;;;;;;;19.62;64.33;99891.56;1086912;54;19999;-81
2022/09/06 01:39:34;;;;;;;;;;;;;;;19.65;64.10;99893.84;1086891;54;19959;-80
2022/09/06 01:40:36;;;;;;;;;;;;;;;19.64;63.94;99903.03;1087346;54;19958;-79
2022/09/06 01:41:39;;;;;;;;;;;;;;;19.63;64.38;99901.38;1087054;54;19950;-79
2022/09/06 01:42:42;;;;;;;;;;;;;;;19.65;64.04;99907.41;1087173;54;19952;-82
2022/09/06 01:43:50;;;;;;;;;;;;;;;19.63;65.04;99902.19;1086991;54;19967;-78
2022/09/06 01:44:53;;;;;;;;;;;;;;;19.51;65.83;99903.03;1086963;54;19957;-79
2022/09/06 01:46:02;;;;;;;;;;;;;;;19.32;67.34;99911.75;1087048;54;19957;-79
2022/09/06 01:47:08;;;;;;;;;;;;;;;19.23;67.77;99912.97;1086870;54;19946;-80
2022/09/06 01:48:18;;;;;;;;;;;;;;;19.16;67.75;99910.28;1087062;54;19942;-78
2022/09/06 01:49:27;;;;;;;;;;;;;;;19.08;68.32;99907.72;1086833;54;19954;-81
2022/09/06 01:50:45;;;;;;;;;;;;;;;19.17;67.60;99902.97;1087098;54;19938;-80
2022/09/06 01:51:54;;;;;;;;;;;;;;;19.26;67.08;99900.91;1086401;54;19971;-81
2022/09/06 01:53:00;;;;;;;;;;;;;;;19.29;66.59;99908.63;1088210;39;20006;-80
2022/09/06 01:54:21;;;;;;;;;;;;;;;19.34;66.25;99903.44;1086827;54;19942;-80
2022/09/06 01:55:30;;;;;;;;;;;;;;;19.38;66.30;99901.13;1088010;39;20422;-78
2022/09/06 01:56:37;;;;;;;;;;;;;;;19.42;66.08;99900.53;1087845;47;19947;-80
2022/09/06 01:57:50;;;;;;;;;;;;;;;19.47;65.63;99898.00;1087369;54;19927;-80
2022/09/06 01:59:00;;;;;;;;;;;;;;;19.51;65.54;99906.56;1087410;54;19967;-80
2022/09/06 02:00:07;;;;;;;;;;;;;;;19.51;65.38;99911.97;1086213;54;19943;-80
2022/09/06 02:01:15;;;;;;;;;;;;;;;19.51;65.45;99913.88;1087515;39;20390;-82
2022/09/06 02:02:22;;;;;;;;;;;;;;;19.48;65.52;99917.84;1086667;54;19942;-81
2022/09/06 02:03:27;;;;;;;;;;;;;;;19.46;65.44;99918.03;1086781;54;19946;-82
2022/09/06 02:04:33;;;;;;;;;;;;;;;19.49;65.39;99919.50;1086649;47;19947;-80
2022/09/06 02:05:37;;;;;;;;;;;;;;;19.34;66.00;99930.53;1086399;54;20446;-79
2022/09/06 02:06:43;;;;;;;;;;;;;;;19.27;66.01;99929.69;1086501;54;19942;-79
2022/09/06 02:07:46;;;;;;;;;;;;;;;19.20;66.50;99934.22;1086417;54;19950;-79
2022/09/06 02:08:52;;;;;;;;;;;;;;;19.11;66.96;99942.53;1086546;54;19947;-81
2022/09/06 02:09:56;;;;;;;;;;;;;;;19.06;67.31;99950.47;1086573;47;19946;-81
2022/09/06 02:11:02;;;;;;;;;;;;;;;18.95;68.05;99953.75;1086313;54;19966;-80
2022/09/06 02:12:04;;;;;;;;;;;;;;;18.92;68.45;99957.66;1086499;54;20653;-82
2022/09/06 02:13:09;;;;;;;;;;;;;;;18.84;69.13;99969.50;1086539;54;19954;-81
2022/09/06 02:14:15;;;;;;;;;;;;;;;18.69;70.21;99993.19;1086978;39;20544;-80
2022/09/06 02:15:22;;;;;;;;;;;;;;;18.68;70.04;99997.75;1087093;54;19943;-83
2022/09/06 02:16:25;;;;;;;;;;;;;;;18.82;69.46;99993.22;1086840;54;19950;-82
2022/09/06 02:17:33;;;;;;;;;;;;;;;18.75;68.82;99981.53;1086541;54;19962;-78
2022/09/06 02:18:37;;;;;;;;;;;;;;;18.91;68.10;99968.69;1086827;54;19975;-81
2022/09/06 02:19:42;;;;;;;;;;;;;;;18.99;67.62;99965.84;1086482;39;20413;-76
2022/09/06 02:20:47;;;;;;;;;;;;;;;18.77;68.26;100000.28;1086188;46;19962;-81
2022/09/06 02:21:53;;;;;;;;;;;;;;;18.73;68.17;100005.25;1086617;39;20420;-79
2022/09/06 02:22:56;;;;;;;;;;;;;;;18.91;67.60;100006.59;1085838;54;19953;-77
2022/09/06 02:24:03;;;;;;;;;;;;;;;19.02;66.87;99989.81;1086059;54;19971;-77
2022/09/06 02:25:06;;;;;;;;;;;;;;;19.09;66.07;99987.97;1085511;54;19951;-78
2022/09/06 02:26:11;;;;;;;;;;;;;;;19.09;66.25;100006.94;1085545;54;20497;-77
2022/09/06 02:27:13;;;;;;;;;;;;;;;19.06;66.08;100004.66;1085126;54;19946;-77
2022/09/06 02:28:18;;;;;;;;;;;;;;;19.07;66.22;100009.03;1085549;54;20555;-77
2022/09/06 02:29:22;;;;;;;;;;;;;;;19.13;65.72;100007.34;1086037;54;19946;-77
2022/09/06 02:30:26;;;;;;;;;;;;;;;19.20;65.76;100005.53;1086140;54;19977;-76
2022/09/06 02:31:29;;;;;;;;;;;;;;;19.27;65.10;100006.38;1086393;54;19955;-76
2022/09/06 02:32:35;;;;;;;;;;;;;;;19.29;64.97;100011.59;1086885;39;20428;-79
2022/09/06 02:33:36;;;;;;;;;;;;;;;19.31;65.12;100012.22;1086343;54;19946;-78
2022/09/06 02:34:42;;;;;;;;;;;;;;;19.30;65.16;100011.41;1086684;54;19951;-82
2022/09/06 02:35:44;;;;;;;;;;;;;;;19.31;64.74;100012.22;1087559;54;20033;-78
2022/09/06 02:36:48;;;;;;;;;;;;;;;19.25;64.85;100023.88;1087528;54;19951;-79
2022/09/06 02:37:49;;;;;;;;;;;;;;;19.15;65.20;100024.25;1087867;39;20131;-80
2022/09/06 02:38:53;;;;;;;;;;;;;;;19.19;65.20;100025.53;1087342;54;19942;-78
2022/09/06 02:39:54;;;;;;;;;;;;;;;19.15;65.39;100025.09;1087854;54;19967;-80
2022/09/06 02:40:58;;;;;;;;;;;;;;;19.17;64.92;100023.03;1087310;54;19950;-80
2022/09/06 02:42:00;;;;;;;;;;;;;;;19.07;65.65;100036.13;1087037;54;19947;-80
2022/09/06 02:43:04;;;;;;;;;;;;;;;19.07;65.46;100025.28;1087070;54;19939;-78
2022/09/06 02:44:05;;;;;;;;;;;;;;;19.14;65.34;100026.13;1087077;54;19947;-79
2022/09/06 02:45:12;;;;;;;;;;;;;;;19.07;65.48;100038.81;1090011;39;20455;-82
2022/09/06 02:46:13;;;;;;;;;;;;;;;19.02;65.78;100047.56;1089083;46;19952;-79
2022/09/06 02:47:17;;;;;;;;;;;;;;;19.07;66.09;100038.81;1087600;54;19957;-82
2022/09/06 02:48:18;;;;;;;;;;;;;;;19.12;65.75;100030.09;1087332;54;19951;-83
2022/09/06 02:49:22;;;;;;;;;;;;;;;19.07;65.97;100038.81;1087342;54;19954;-82
2022/09/06 02:50:23;;;;;;;;;;;;;;;19.03;66.27;100032.13;1087358;54;19978;-79
2022/09/06 02:51:27;;;;;;;;;;;;;;;19.10;66.25;100026.75;1087708;54;19987;-79
2022/09/06 02:52:28;;;;;;;;;;;;;;;19.09;66.52;100036.72;1087403;54;19947;-78
2022/09/06 02:53:32;;;;;;;;;;;;;;;19.21;65.98;100022.63;1087762;54;19943;-78
2022/09/06 02:54:33;;;;;;;;;;;;;;;19.29;65.70;100019.72;1087627;54;20418;-80
2022/09/06 02:55:37;;;;;;;;;;;;;;;19.24;65.90;100017.63;1087637;54;19939;-78
2022/09/06 02:56:39;;;;;;;;;;;;;;;19.35;65.63;100010.81;1087934;54;19939;-82
2022/09/06 02:57:42;;;;;;;;;;;;;;;19.36;66.18;100009.75;1087148;54;20724;-79
2022/09/06 02:58:43;;;;;;;;;;;;;;;19.42;65.71;100006.22;1087729;54;19934;-80
2022/09/06 02:59:47;;;;;;;;;;;;;;;19.48;65.41;100004.56;1087094;54;19946;-78
2022/09/06 03:00:51;;;;;;;;;;;;;;;19.51;66.25;99990.59;1087375;54;20040;-79
2022/09/06 03:01:55;;;;;;;;;;;;;;;19.53;65.88;99990.41;1087499;54;20442;-79
2022/09/06 03:02:56;;;;;;;;;;;;;;;19.60;65.66;99974.97;1087737;54;19943;-82
2022/09/06 03:04:01;;;;;;;;;;;;;;;19.56;66.50;99955.59;1090796;39;20687;-81
2022/09/06 03:05:02;;;;;;;;;;;;;;;19.52;67.64;99937.22;1087788;54;19943;-81
2022/09/06 03:06:06;;;;;;;;;;;;;;;19.42;68.01;99916.78;1087776;54;19942;-80
2022/09/06 03:07:07;;;;;;;;;;;;;;;19.26;69.03;99901.75;1087808;54;19943;-83
2022/09/06 03:08:10;;;;;;;;;;;;;;;19.13;69.19;99896.28;1087792;54;19926;-81
2022/09/06 03:09:11;;;;;;;;;;;;;;;19.11;69.52;99901.91;1087702;54;19942;-80
2022/09/06 03:10:15;;;;;;;;;;;;;;;19.10;69.51;99911.06;1092747;39;20581;-81
2022/09/06 03:11:16;;;;;;;;;;;;;;;19.16;69.00;99914.84;1087761;54;19942;-81
2022/09/06 03:12:20;;;;;;;;;;;;;;;19.21;69.15;99920.50;1087764;54;19939;-84
2022/09/06 03:13:23;;;;;;;;;;;;;;;19.24;69.24;99919.25;1087772;54;19950;-82
2022/09/06 03:14:27;;;;;;;;;;;;;;;19.27;69.03;99914.25;1087632;54;19950;-82
2022/09/06 03:15:28;;;;;;;;;;;;;;;19.25;68.62;99910.09;1087772;54;19971;-81
2022/09/06 03:16:35;;;;;;;;;;;;;;;19.27;69.09;99916.13;1087725;54;20932;-82
2022/09/06 03:17:36;;;;;;;;;;;;;;;19.26;69.38;99896.31;1089740;39;20850;-83
2022/09/06 03:18:40;;;;;;;;;;;;;;;19.24;68.89;99898.38;1087755;54;19998;-83
2022/09/06 03:19:41;;;;;;;;;;;;;;;19.27;69.42;99902.59;1087716;54;19967;-83
2022/09/06 03:20:46;;;;;;;;;;;;;;;19.32;70.21;99895.47;1087825;54;20566;-82
2022/09/06 03:21:47;;;;;;;;;;;;;;;19.24;70.48;99911.94;1089785;39;20444;-80
2022/09/06 03:22:51;;;;;;;;;;;;;;;19.17;70.72;99919.22;1087664;54;19934;-82
2022/09/06 03:23:53;;;;;;;;;;;;;;;19.21;70.94;99925.06;1087681;54;19973;-82
2022/09/06 03:24:58;;;;;;;;;;;;;;;19.32;70.52;99929.91;1087729;54;19950;-83
2022/09/06 03:25:59;;;;;;;;;;;;;;;19.38;70.61;99931.78;1088389;46;19943;-83
2022/09/06 03:27:03;;;;;;;;;;;;;;;19.41;70.84;99925.13;1087660;54;19951;-83
2022/09/06 03:28:04;;;;;;;;;;;;;;;19.41;70.25;99934.09;1087991;47;19942;-84
2022/09/06 03:29:08;;;;;;;;;;;;;;;19.42;70.29;99945.75;1087694;54;19943;-83
2022/09/06 03:30:10;;;;;;;;;;;;;;;19.37;70.63;99951.78;1087799;54;19943;-84
2022/09/06 03:31:13;;;;;;;;;;;;;;;19.37;70.85;99961.81;1087796;54;19974;-84
2022/09/06 03:32:17;;;;;;;;;;;;;;;19.43;70.13;99956.41;1087315;54;19974;-82
2022/09/06 03:33:21;;;;;;;;;;;;;;;19.51;69.69;99954.53;1087792;54;19954;-84
2022/09/06 03:34:22;;;;;;;;;;;;;;;19.56;70.32;99955.59;1087837;54;19942;-84
2022/09/06 03:35:26;;;;;;;;;;;;;;;19.58;70.55;99974.34;1087874;54;19989;-85
2022/09/06 03:36:30;;;;;;;;;;;;;;;19.55;71.05;99986.44;1087962;54;19966;-86
2022/09/06 03:37:31;;;;;;;;;;;;;;;19.38;72.32;100004.13;1087946;54;19943;-83
2022/09/06 03:38:35;;;;;;;;;;;;;;;19.40;71.97;100008.31;1089910;46;19930;-85
2022/09/06 03:39:36;;;;;;;;;;;;;;;19.39;72.31;100003.91;1089363;39;20134;-83
2022/09/06 03:40:42;;;;;;;;;;;;;;;19.32;72.47;100001.19;1087986;54;19943;-85
2022/09/06 03:41:43;;;;;;;;;;;;;;;19.35;72.28;99991.81;1087468;54;19934;-86
2022/09/06 03:42:46;;;;;;;;;;;;;;;19.41;71.70;99990.19;1087551;54;20991;-85
2022/09/06 03:43:48;;;;;;;;;;;;;;;19.39;71.62;99976.81;1087727;54;19946;-85
2022/09/06 03:44:51;;;;;;;;;;;;;;;19.35;72.28;99956.59;1087682;54;19946;-81
2022/09/06 03:45:53;;;;;;;;;;;;;;;19.35;72.00;99931.34;1087515;54;19947;-82
2022/09/06 03:46:57;;;;;;;;;;;;;;;19.24;74.59;99903.81;1087073;54;19950;-80
2022/09/06 03:48:01;;;;;;;;;;;;;;;19.21;74.20;99882.56;1085839;54;19970;-77
2022/09/06 03:49:05;;;;;;;;;;;;;;;19.11;75.32;99885.66;1086078;54;19947;-80
2022/09/06 03:50:07;;;;;;;;;;;;;;;19.01;75.78;99896.03;1087190;39;20784;-84
2022/09/06 03:51:11;;;;;;;;;;;;;;;18.97;76.43;99913.75;1086516;54;19959;-78
2022/09/06 03:52:12;;;;;;;;;;;;;;;18.98;76.27;99929.78;1086085;54;19946;-78
2022/09/06 03:53:17;;;;;;;;;;;;;;;19.02;75.30;99930.22;1086004;54;20063;-79
2022/09/06 03:54:18;;;;;;;;;;;;;;;19.07;75.33;99924.19;1086735;39;20478;-79
2022/09/06 03:55:22;;;;;;;;;;;;;;;19.08;75.67;99929.41;1085917;54;19954;-79
2022/09/06 03:56:23;;;;;;;;;;;;;;;19.07;75.04;99903.38;1086204;54;19953;-78
2022/09/06 03:57:27;;;;;;;;;;;;;;;19.05;75.00;99900.03;1086246;54;19953;-79
2022/09/06 03:58:29;;;;;;;;;;;;;;;18.95;76.63;99900.41;1085758;54;19946;-79
2022/09/06 03:59:33;;;;;;;;;;;;;;;18.94;76.36;99887.91;1087631;39;20500;-80
2022/09/06 04:00:34;;;;;;;;;;;;;;;18.92;77.10;99889.13;1086701;54;19947;-82
2022/09/06 04:01:38;;;;;;;;;;;;;;;18.88;76.98;99883.28;1086303;54;19974;-79
2022/09/06 04:02:39;;;;;;;;;;;;;;;18.93;76.78;99888.09;1087425;46;19970;-81
2022/09/06 04:03:45;;;;;;;;;;;;;;;18.95;76.54;99888.75;1086816;54;19950;-82
2022/09/06 04:04:47;;;;;;;;;;;;;;;18.91;77.58;99887.44;1086890;54;19947;-83
2022/09/06 04:05:50;;;;;;;;;;;;;;;18.89;77.82;99894.97;1087263;54;20488;-83
2022/09/06 04:06:54;;;;;;;;;;;;;;;18.80;78.65;99897.81;1087174;54;19966;-81
2022/09/06 04:07:55;;;;;;;;;;;;;;;18.84;77.92;99899.09;1087041;54;19949;-82
2022/09/06 04:08:59;;;;;;;;;;;;;;;18.85;77.53;99899.91;1087206;54;19951;-82
2022/09/06 04:10:00;;;;;;;;;;;;;;;18.92;76.86;99908.91;1090193;39;20456;-84
